Time;durP1;ratioP1;P1;durP2;ratioP2;P2;SDS_P1;SDS_P2;PMS_P1;PMS_P2;Temp;Humidity;BMP_temperature;BMP_pressure;BME280_temperature;BME280_humidity;BME280_pressure;Samples;Min_cycle;Max_cycle;Signal;HPM_P1;HPM_P2
2023/06/10 00:01:47;;;;;;;7.87;7.27;;;;;;;19.74;82.63;99805.31;5000168;28;20187;-75
2023/06/10 00:04:16;;;;;;;7.50;6.80;;;;;;;19.74;82.76;99805.31;4997279;28;20200;-75
2023/06/10 00:06:43;;;;;;;8.17;7.37;;;;;;;19.68;83.26;99801.25;5001104;28;20220;-76
2023/06/10 00:09:10;;;;;;;7.90;6.83;;;;;;;19.65;82.77;99791.78;4997756;28;20793;-75
2023/06/10 00:11:36;;;;;;;7.53;6.93;;;;;;;19.63;82.33;99800.66;4979574;28;20457;-75
2023/06/10 00:14:01;;;;;;;7.30;6.70;;;;;;;19.58;83.59;99794.81;4997115;28;20629;-75
2023/06/10 00:16:27;;;;;;;7.50;6.80;;;;;;;19.57;83.39;99793.94;4978738;28;20306;-75
2023/06/10 00:18:52;;;;;;;7.83;7.10;;;;;;;19.52;83.95;99789.88;4979594;28;20663;-76
2023/06/10 00:21:18;;;;;;;7.90;6.90;;;;;;;19.52;83.11;99801.22;4979721;28;20218;-75
2023/06/10 00:23:44;;;;;;;7.90;7.20;;;;;;;19.53;83.41;99797.66;4996399;28;20191;-75
2023/06/10 00:26:09;;;;;;;8.30;7.57;;;;;;;19.54;82.77;99799.38;4998075;28;20668;-75
2023/06/10 00:28:35;;;;;;;8.47;7.67;;;;;;;19.50;82.26;99793.44;4997895;28;20233;-76
2023/06/10 00:31:01;;;;;;;7.80;7.10;;;;;;;19.52;82.45;99793.34;4990984;28;20196;-75
2023/06/10 00:33:26;;;;;;;7.57;6.87;;;;;;;19.46;81.80;99804.19;5007284;28;20224;-75
2023/06/10 00:35:51;;;;;;;7.80;7.10;;;;;;;19.52;81.82;99792.50;5022352;28;20189;-75
2023/06/10 00:38:17;;;;;;;8.13;7.43;;;;;;;19.58;80.63;99792.19;5000854;28;20222;-75
2023/06/10 00:40:42;;;;;;;7.33;6.53;;;;;;;19.57;80.55;99793.13;4995989;28;20205;-75
2023/06/10 00:43:08;;;;;;;7.23;6.63;;;;;;;19.55;80.53;99793.19;4977375;28;20415;-75
2023/06/10 00:45:33;;;;;;;7.80;7.20;;;;;;;19.55;80.95;99790.56;4981611;28;20724;-75
2023/06/10 00:48:00;;;;;;;7.87;7.17;;;;;;;19.55;81.79;99782.69;4998469;28;20249;-74
2023/06/10 00:50:25;;;;;;;7.50;6.80;;;;;;;19.63;79.22;99779.66;4996948;28;20194;-74
2023/06/10 00:52:52;;;;;;;7.97;7.30;;;;;;;19.64;79.21;99779.59;4997085;28;20747;-75
2023/06/10 00:55:17;;;;;;;7.53;6.87;;;;;;;19.74;78.60;99781.69;4979680;28;20190;-75
2023/06/10 00:57:46;;;;;;;7.63;7.03;;;;;;;19.73;80.16;99783.47;4999826;28;20230;-74
2023/06/10 01:00:12;;;;;;;6.90;6.40;;;;;;;19.70;79.63;99781.00;4997369;28;20687;-75
2023/06/10 01:02:37;;;;;;;7.73;7.00;;;;;;;19.73;78.13;99777.38;4997535;28;20270;-75
2023/06/10 01:05:03;;;;;;;7.00;6.50;;;;;;;19.77;77.51;99773.66;4987250;28;20195;-73
2023/06/10 01:07:37;;;;;;;7.37;6.73;;;;;;;19.73;77.50;99775.59;4975855;28;20377;-76
2023/06/10 01:10:05;;;;;;;6.87;6.27;;;;;;;19.79;77.15;99782.28;4992714;28;20189;-75
2023/06/10 01:12:37;;;;;;;8.30;6.60;;;;;;;19.80;76.84;99783.97;5002251;28;20208;-76
2023/06/10 01:15:04;;;;;;;7.47;6.50;;;;;;;19.78;76.75;99781.44;5000239;28;21007;-75
2023/06/10 01:17:30;;;;;;;7.73;6.60;;;;;;;19.78;76.43;99778.81;4979152;28;20695;-74
2023/06/10 01:19:56;;;;;;;7.67;6.93;;;;;;;19.84;76.06;99764.47;4995704;28;20221;-75
2023/06/10 01:22:24;;;;;;;6.93;6.27;;;;;;;19.88;76.03;99771.28;4999574;28;20562;-75
2023/06/10 01:24:50;;;;;;;7.33;6.73;;;;;;;20.00;75.30;99774.16;4998138;28;20199;-75
2023/06/10 01:27:19;;;;;;;6.70;6.10;;;;;;;20.06;74.94;99787.78;4993814;28;20187;-76
2023/06/10 01:29:48;;;;;;;6.77;6.27;;;;;;;20.15;74.84;99780.31;4996897;28;20179;-75
2023/06/10 01:32:18;;;;;;;6.80;6.20;;;;;;;20.18;74.71;99782.78;4996108;28;20182;-76
2023/06/10 01:34:45;;;;;;;6.83;6.23;;;;;;;20.17;74.85;99783.72;4999356;28;20233;-75
2023/06/10 01:37:15;;;;;;;6.40;5.90;;;;;;;20.10;75.25;99786.69;4995545;28;20195;-73
2023/06/10 01:39:42;;;;;;;6.87;6.23;;;;;;;20.17;74.83;99787.19;4997888;28;21047;-75
2023/06/10 01:42:09;;;;;;;6.90;6.30;;;;;;;20.22;74.63;99787.78;4999305;28;20190;-75
2023/06/10 01:44:35;;;;;;;6.80;6.17;;;;;;;20.22;74.62;99787.78;5006940;28;20197;-76
2023/06/10 01:47:00;;;;;;;6.60;6.10;;;;;;;20.19;75.12;99784.47;4987491;28;20195;-76
2023/06/10 01:49:26;;;;;;;6.70;6.20;;;;;;;20.23;74.84;99784.22;5005630;28;20203;-75
2023/06/10 01:51:52;;;;;;;6.83;6.23;;;;;;;20.36;74.43;99789.59;5001363;28;20214;-75
2023/06/10 01:54:17;;;;;;;6.73;6.13;;;;;;;20.39;74.38;99793.84;5005375;28;20291;-76
2023/06/10 01:56:42;;;;;;;6.13;5.63;;;;;;;20.33;74.37;99789.78;5002623;28;20275;-75
2023/06/10 01:59:08;;;;;;;6.40;5.90;;;;;;;20.35;74.57;99795.78;5003503;28;20770;-76
2023/06/10 02:01:33;;;;;;;6.70;5.70;;;;;;;20.32;74.61;99789.84;5003499;28;20263;-76
2023/06/10 02:03:58;;;;;;;6.30;5.80;;;;;;;20.42;74.64;99791.00;5000944;28;20184;-75
2023/06/10 02:06:24;;;;;;;6.27;5.70;;;;;;;20.41;74.59;99798.06;5005585;28;20700;-75
2023/06/10 02:08:49;;;;;;;6.80;6.30;;;;;;;20.40;74.76;99795.53;5005341;28;20219;-75
2023/06/10 02:11:15;;;;;;;6.10;5.60;;;;;;;20.35;74.57;99801.03;5001962;28;20321;-74
2023/06/10 02:13:40;;;;;;;6.87;5.30;;;;;;;20.36;74.53;99802.72;5004657;28;20620;-75
2023/06/10 02:16:09;;;;;;;6.40;5.90;;;;;;;20.31;74.73;99804.78;5004888;28;20579;-75
2023/06/10 02:18:34;;;;;;;5.70;5.20;;;;;;;20.31;74.98;99811.81;4986853;28;20219;-76
2023/06/10 02:20:59;;;;;;;5.90;5.40;;;;;;;20.25;75.75;99803.38;5004081;28;20605;-75
2023/06/10 02:23:25;;;;;;;5.97;5.57;;;;;;;20.22;75.30;99797.41;5001693;28;20191;-77
2023/06/10 02:25:50;;;;;;;6.43;5.83;;;;;;;20.19;75.72;99806.34;4984494;28;20202;-76
2023/06/10 02:28:16;;;;;;;6.37;5.87;;;;;;;20.17;75.78;99810.81;5001843;28;20915;-75
2023/06/10 02:30:42;;;;;;;5.93;5.50;;;;;;;20.21;75.07;99812.34;5003049;28;21648;-75
2023/06/10 02:33:11;;;;;;;6.47;5.97;;;;;;;20.19;75.61;99810.75;4998137;28;20222;-75
2023/06/10 02:35:38;;;;;;;6.37;5.87;;;;;;;20.13;76.73;99805.84;5002782;28;20191;-75
2023/06/10 02:38:04;;;;;;;6.60;6.10;;;;;;;20.06;77.51;99818.47;5004822;28;20342;-75
2023/06/10 02:40:29;;;;;;;7.47;6.87;;;;;;;19.88;79.40;99821.19;4985918;28;20267;-75
2023/06/10 02:42:55;;;;;;;6.93;6.40;;;;;;;19.72;80.05;99826.41;5001065;28;20201;-75
2023/06/10 02:45:20;;;;;;;7.03;6.33;;;;;;;19.61;80.61;99829.63;4996056;28;20197;-75
2023/06/10 02:47:45;;;;;;;7.47;6.83;;;;;;;19.36;81.92;99831.88;5004640;28;20211;-76
2023/06/10 02:50:10;;;;;;;7.77;7.17;;;;;;;19.19;82.76;99836.22;5001462;28;20268;-75
2023/06/10 02:52:36;;;;;;;7.20;6.70;;;;;;;18.93;84.03;99833.13;5004294;28;20199;-75
2023/06/10 02:55:01;;;;;;;8.50;7.73;;;;;;;18.72;85.71;99835.06;5001728;28;20681;-76
2023/06/10 02:57:26;;;;;;;8.17;7.37;;;;;;;18.67;86.51;99835.28;5002181;28;20196;-74
2023/06/10 02:59:53;;;;;;;8.23;7.50;;;;;;;18.60;86.60;99841.78;4999077;28;20734;-75
2023/06/10 03:02:19;;;;;;;8.10;7.40;;;;;;;18.58;87.18;99844.44;4999833;28;20248;-75
2023/06/10 03:04:44;;;;;;;7.43;6.80;;;;;;;18.56;87.10;99834.97;5005059;28;20216;-75
2023/06/10 03:07:10;;;;;;;8.03;7.37;;;;;;;18.49;87.04;99839.69;5000844;28;20754;-75
2023/06/10 03:09:36;;;;;;;8.27;7.67;;;;;;;18.51;86.40;99845.69;4999637;28;20553;-76
2023/06/10 03:12:02;;;;;;;8.07;7.40;;;;;;;18.45;87.92;99843.38;4999920;28;20200;-75
2023/06/10 03:14:27;;;;;;;7.63;7.13;;;;;;;18.40;88.84;99854.06;5004278;28;20193;-74
2023/06/10 03:16:53;;;;;;;8.30;7.70;;;;;;;18.38;88.17;99857.66;4983526;28;20573;-75
2023/06/10 03:19:18;;;;;;;7.67;7.10;;;;;;;18.34;88.29;99851.75;5000123;28;20299;-75
2023/06/10 03:21:45;;;;;;;10.20;7.20;;;;;;;18.28;88.58;99855.50;5000046;28;20189;-75
2023/06/10 03:24:10;;;;;;;8.03;7.33;;;;;;;18.21;88.74;99856.75;4982727;28;20931;-75
2023/06/10 03:26:36;;;;;;;8.33;7.63;;;;;;;18.17;89.42;99855.19;5002166;28;20188;-76
2023/06/10 03:29:02;;;;;;;8.60;7.90;;;;;;;18.17;89.63;99857.78;4986435;28;20672;-77
2023/06/10 03:31:27;;;;;;;7.50;6.90;;;;;;;18.13;90.20;99861.47;5002976;28;20185;-75
2023/06/10 03:33:52;;;;;;;7.53;6.93;;;;;;;18.04;90.55;99860.13;4999513;28;20204;-76
2023/06/10 03:36:17;;;;;;;8.33;7.63;;;;;;;18.04;90.34;99860.13;5000606;28;20200;-75
2023/06/10 03:38:43;;;;;;;7.80;7.10;;;;;;;18.03;90.41;99865.47;4999368;28;20226;-75
2023/06/10 03:41:08;;;;;;;7.50;6.90;;;;;;;17.98;90.77;99866.50;4999942;28;20192;-75
2023/06/10 03:43:33;;;;;;;8.67;7.87;;;;;;;17.98;91.31;99866.50;5001194;28;20189;-75
2023/06/10 03:45:59;;;;;;;7.40;6.70;;;;;;;17.99;90.46;99870.00;5001906;28;20203;-75
2023/06/10 03:48:24;;;;;;;7.10;6.60;;;;;;;17.98;90.52;99868.28;4983172;28;20220;-75
2023/06/10 03:50:52;;;;;;;7.87;7.17;;;;;;;17.96;90.42;99870.94;4998174;28;20201;-76
2023/06/10 03:53:18;;;;;;;8.13;7.40;;;;;;;17.98;90.53;99865.69;5002022;28;20195;-76
2023/06/10 03:55:44;;;;;;;8.30;7.37;;;;;;;18.08;90.38;99876.53;5003038;28;20189;-74
2023/06/10 03:58:12;;;;;;;7.83;7.13;;;;;;;18.22;89.50;99870.66;5002402;28;20213;-76
2023/06/10 04:00:41;;;;;;;7.77;7.17;;;;;;;18.32;88.88;99876.31;4997999;28;20204;-75
2023/06/10 04:03:08;;;;;;;8.20;7.50;;;;;;;18.42;89.10;99893.28;5001074;28;20192;-75
2023/06/10 04:05:34;;;;;;;8.00;7.33;;;;;;;18.34;88.98;99882.34;5004570;28;20191;-74
2023/06/10 04:08:01;;;;;;;7.87;7.23;;;;;;;18.27;89.50;99890.47;5000701;28;20211;-75
2023/06/10 04:10:27;;;;;;;7.97;7.27;;;;;;;18.22;89.47;99878.53;4984160;28;20189;-76
2023/06/10 04:12:52;;;;;;;8.00;7.30;;;;;;;18.14;90.46;99878.88;4997751;28;20223;-74
2023/06/10 04:15:17;;;;;;;7.83;7.17;;;;;;;18.17;90.17;99888.34;5000553;28;20197;-75
2023/06/10 04:17:43;;;;;;;9.00;8.20;;;;;;;18.13;90.14;99892.91;4982004;28;20223;-75
2023/06/10 04:20:09;;;;;;;7.50;6.90;;;;;;;18.27;90.12;99889.66;5000229;28;20217;-75
2023/06/10 04:22:35;;;;;;;8.03;7.33;;;;;;;18.50;89.42;99888.53;4984924;28;21056;-75
2023/06/10 04:25:00;;;;;;;8.17;7.30;;;;;;;18.54;89.01;99886.63;5002449;28;20200;-76
2023/06/10 04:27:25;;;;;;;9.17;7.90;;;;;;;18.47;89.14;99883.44;4996690;28;22097;-75
2023/06/10 04:29:51;;;;;;;8.47;7.60;;;;;;;18.41;89.87;99881.09;4980470;28;20200;-76
2023/06/10 04:32:16;;;;;;;8.40;7.40;;;;;;;18.39;89.49;99888.19;4978033;28;20203;-75
2023/06/10 04:34:42;;;;;;;7.90;7.20;;;;;;;18.39;89.54;99894.28;5002955;28;20184;-76
2023/06/10 04:37:07;;;;;;;7.47;6.97;;;;;;;18.51;89.33;99895.47;5002683;28;20186;-75
2023/06/10 04:39:33;;;;;;;9.70;7.37;;;;;;;18.82;88.53;99891.34;4992899;28;20219;-75
2023/06/10 04:41:59;;;;;;;8.10;7.33;;;;;;;19.34;86.38;99893.13;4999003;28;20931;-76
2023/06/10 04:44:25;;;;;;;7.93;7.20;;;;;;;19.78;84.85;99893.50;4994358;28;20243;-75
2023/06/10 04:46:50;;;;;;;7.90;7.13;;;;;;;20.32;82.38;99894.97;4980233;28;20204;-75
2023/06/10 04:49:16;;;;;;;6.73;6.23;;;;;;;20.68;81.35;99899.91;5000737;28;20224;-76
2023/06/10 04:51:41;;;;;;;7.30;6.60;;;;;;;21.01;79.45;99900.72;5002507;28;20279;-76
2023/06/10 04:54:07;;;;;;;7.17;6.47;;;;;;;21.27;78.13;99898.31;5001689;28;20188;-75
2023/06/10 04:56:32;;;;;;;7.03;6.43;;;;;;;21.88;77.24;99895.53;4987044;28;20268;-74
2023/06/10 04:58:59;;;;;;;6.60;6.10;;;;;;;21.86;76.05;99902.66;4992155;28;20221;-76
2023/06/10 05:01:24;;;;;;;7.07;6.47;;;;;;;21.74;77.12;99910.41;4998701;28;20181;-75
2023/06/10 05:03:49;;;;;;;6.33;5.73;;;;;;;22.44;75.26;99903.44;5001968;28;20193;-76
2023/06/10 05:06:15;;;;;;;7.47;5.80;;;;;;;22.93;73.71;99898.47;4976581;28;20695;-75
2023/06/10 05:08:40;;;;;;;6.37;5.87;;;;;;;23.07;73.64;99914.22;4997386;28;20406;-76
2023/06/10 05:11:06;;;;;;;6.27;5.73;;;;;;;23.36;72.16;99908.81;4983288;28;20199;-76
2023/06/10 05:13:32;;;;;;;6.73;6.03;;;;;;;24.12;70.84;99905.34;4980376;28;20196;-74
2023/06/10 05:15:57;;;;;;;6.10;5.60;;;;;;;23.97;70.32;99899.34;4986621;28;21078;-76
2023/06/10 05:18:23;;;;;;;6.23;5.63;;;;;;;24.42;69.55;99904.06;5001914;28;20207;-74
2023/06/10 05:20:49;;;;;;;5.50;5.00;;;;;;;24.84;68.47;99904.50;4999660;28;20223;-76
2023/06/10 05:23:14;;;;;;;6.70;6.10;;;;;;;25.14;67.51;99904.94;5000293;28;20188;-76
2023/06/10 05:25:41;;;;;;;6.10;5.60;;;;;;;25.61;66.83;99902.25;5000456;28;21004;-76
2023/06/10 05:28:09;;;;;;;5.23;4.83;;;;;;;25.97;66.11;99902.94;4998954;28;20357;-76
2023/06/10 05:30:35;;;;;;;5.67;5.27;;;;;;;25.44;66.74;99909.72;4985730;28;20284;-76
2023/06/10 05:33:00;;;;;;;6.20;5.50;;;;;;;25.51;67.44;99913.56;5005966;28;20337;-75
2023/06/10 05:35:26;;;;;;;5.43;5.03;;;;;;;25.47;66.85;99921.88;5003735;28;20704;-75
2023/06/10 05:37:51;;;;;;;5.90;5.40;;;;;;;25.54;67.06;99915.16;5006232;28;20210;-75
2023/06/10 05:40:16;;;;;;;5.65;5.25;;;;;;;25.23;67.33;99923.63;5001516;28;20208;-76
2023/06/10 05:42:41;;;;;;;5.88;5.38;;;;;;;25.83;66.43;99922.63;4986343;28;20211;-74
2023/06/10 05:45:07;;;;;;;5.80;5.30;;;;;;;25.53;66.68;99922.25;4984579;28;20197;-76
2023/06/10 05:47:32;;;;;;;5.68;5.18;;;;;;;25.51;66.52;99932.09;5005491;28;20626;-75
2023/06/10 05:49:58;;;;;;;5.22;4.82;;;;;;;26.27;65.97;99920.03;4985322;28;20491;-75
2023/06/10 05:52:23;;;;;;;5.85;5.30;;;;;;;26.05;65.35;99919.09;5003150;28;20566;-76
2023/06/10 05:54:50;;;;;;;5.75;5.35;;;;;;;25.80;65.91;99922.84;5003470;28;20192;-75
2023/06/10 05:57:15;;;;;;;5.30;4.90;;;;;;;26.12;66.23;99927.44;5003467;28;20199;-76
2023/06/10 05:59:40;;;;;;;5.40;5.00;;;;;;;25.90;65.84;99929.09;5006406;28;20220;-77
2023/06/10 06:02:06;;;;;;;5.60;5.20;;;;;;;26.17;65.38;99919.94;5000439;28;20180;-75
2023/06/10 06:04:32;;;;;;;5.00;4.60;;;;;;;26.01;65.94;99930.91;5005117;28;20208;-75
2023/06/10 06:06:57;;;;;;;7.85;5.68;;;;;;;24.41;67.52;99939.41;4986796;28;20192;-75
2023/06/10 06:09:22;;;;;;;11.23;5.63;;;;;;;23.71;70.28;99937.19;4992437;28;20703;-76
2023/06/10 06:11:48;;;;;;;7.30;5.77;;;;;;;22.86;71.47;99940.25;4979820;28;20580;-75
2023/06/10 06:14:13;;;;;;;10.07;5.73;;;;;;;22.48;73.11;99940.97;5000641;28;20215;-75
2023/06/10 06:16:38;;;;;;;5.87;5.03;;;;;;;22.28;73.63;99942.22;5004312;28;20195;-75
2023/06/10 06:19:04;;;;;;;5.60;5.17;;;;;;;22.94;72.87;99934.47;5002568;28;20639;-75
2023/06/10 06:21:29;;;;;;;6.10;5.60;;;;;;;22.84;72.72;99942.16;4984453;28;20211;-75
2023/06/10 06:23:55;;;;;;;5.80;5.30;;;;;;;23.33;72.10;99950.41;5000013;28;20701;-76
2023/06/10 06:26:20;;;;;;;5.67;5.17;;;;;;;23.14;72.95;99949.81;4999306;28;20192;-77
2023/06/10 06:28:46;;;;;;;6.00;5.50;;;;;;;24.12;70.74;99943.19;5000941;28;20208;-76
2023/06/10 06:31:11;;;;;;;5.73;4.53;;;;;;;24.85;69.54;99948.56;4985421;28;20701;-75
2023/06/10 06:33:36;;;;;;;5.20;4.70;;;;;;;24.06;70.29;99946.25;5003355;28;20200;-75
2023/06/10 06:36:02;;;;;;;5.93;5.50;;;;;;;23.38;72.33;99945.66;5001648;28;20319;-75
2023/06/10 06:38:27;;;;;;;11.33;5.37;;;;;;;23.87;71.29;99949.34;4984264;28;20204;-76
2023/06/10 06:40:52;;;;;;;6.13;5.57;;;;;;;24.08;70.47;99946.16;4999843;28;20599;-78
2023/06/10 06:43:18;;;;;;;5.53;5.03;;;;;;;23.79;71.50;99951.69;4986909;28;20200;-75
2023/06/10 06:45:44;;;;;;;5.37;4.87;;;;;;;23.85;71.85;99951.22;5002573;28;20188;-76
2023/06/10 06:48:10;;;;;;;5.27;4.87;;;;;;;24.17;70.83;99945.50;4999551;28;20282;-77
2023/06/10 06:50:36;;;;;;;5.53;5.07;;;;;;;24.48;69.34;99953.88;4997622;28;20185;-76
2023/06/10 06:53:01;;;;;;;6.57;5.37;;;;;;;23.41;72.35;99956.03;5001038;28;20194;-75
2023/06/10 06:55:27;;;;;;;5.57;5.07;;;;;;;23.40;72.92;99955.16;4998252;28;20188;-75
2023/06/10 06:57:52;;;;;;;5.87;5.37;;;;;;;23.14;73.54;99955.09;4999493;28;21075;-75
2023/06/10 07:00:18;;;;;;;5.93;4.87;;;;;;;23.12;73.79;99948.25;5000929;28;20214;-75
2023/06/10 07:02:43;;;;;;;7.57;5.60;;;;;;;22.94;74.62;99945.88;5000808;28;20185;-75
2023/06/10 07:05:08;;;;;;;7.97;5.57;;;;;;;23.21;74.89;99945.00;4995199;28;20180;-76
2023/06/10 07:07:34;;;;;;;11.03;6.73;;;;;;;23.52;74.11;99950.84;4997993;28;20611;-75
2023/06/10 07:09:59;;;;;;;6.97;5.67;;;;;;;23.93;73.10;99938.34;4993929;28;20226;-75
2023/06/10 07:12:25;;;;;;;9.93;5.53;;;;;;;23.49;73.99;99955.50;4996119;28;20223;-76
2023/06/10 07:14:51;;;;;;;5.53;5.03;;;;;;;24.05;72.80;99939.28;4998662;28;20203;-76
2023/06/10 07:17:17;;;;;;;5.20;4.70;;;;;;;24.75;71.18;99947.53;4997055;28;20184;-75
2023/06/10 07:19:43;;;;;;;5.43;5.03;;;;;;;24.47;71.34;99950.38;4983680;28;20319;-75
2023/06/10 07:22:08;;;;;;;5.03;4.63;;;;;;;24.96;70.87;99956.53;5001330;28;20203;-75
2023/06/10 07:24:34;;;;;;;5.83;5.30;;;;;;;25.19;70.46;99956.56;5000379;28;20279;-75
2023/06/10 07:26:59;;;;;;;5.95;5.40;;;;;;;25.72;68.49;99949.97;4979891;28;20275;-75
2023/06/10 07:29:24;;;;;;;6.45;5.80;;;;;;;25.38;69.86;99955.19;4999494;28;20900;-77
2023/06/10 07:31:50;;;;;;;6.28;5.72;;;;;;;25.17;70.09;99944.44;5002314;28;20192;-76
2023/06/10 07:34:15;;;;;;;5.68;5.18;;;;;;;25.47;69.95;99957.16;5002172;28;20600;-76
2023/06/10 07:36:40;;;;;;;5.25;4.75;;;;;;;25.73;69.87;99941.03;4981264;28;20180;-76
2023/06/10 07:39:06;;;;;;;5.13;4.68;;;;;;;25.89;69.81;99943.31;4999892;28;20208;-76
2023/06/10 07:41:32;;;;;;;5.88;4.82;;;;;;;25.50;70.96;99948.13;4997108;28;20977;-77
2023/06/10 07:43:57;;;;;;;4.85;4.45;;;;;;;25.85;69.34;99944.53;4997688;28;20180;-75
2023/06/10 07:46:23;;;;;;;6.32;5.55;;;;;;;25.47;70.22;99949.22;4998093;28;20193;-76
2023/06/10 07:48:49;;;;;;;5.88;5.07;;;;;;;25.40;71.18;99937.38;4997188;28;20700;-76
2023/06/10 07:51:15;;;;;;;6.88;5.53;;;;;;;25.55;70.82;99941.50;4988777;28;20247;-76
2023/06/10 07:53:41;;;;;;;12.10;5.88;;;;;;;25.66;70.78;99934.53;4978253;28;20200;-75
2023/06/10 07:56:06;;;;;;;4.85;4.50;;;;;;;25.42;71.18;99943.44;4997438;28;20204;-75
2023/06/10 07:58:32;;;;;;;5.85;5.28;;;;;;;25.65;70.92;99932.84;4996936;28;20943;-75
2023/06/10 08:00:57;;;;;;;9.13;5.70;;;;;;;25.85;70.91;99929.47;4994063;28;21010;-76
2023/06/10 08:03:22;;;;;;;5.90;5.15;;;;;;;26.03;70.16;99932.44;4997734;28;20188;-74
2023/06/10 08:05:48;;;;;;;7.45;5.80;;;;;;;25.60;69.96;99940.31;4996380;28;20203;-76
2023/06/10 08:08:13;;;;;;;5.80;5.30;;;;;;;25.05;71.49;99947.06;4999778;28;20216;-75
2023/06/10 08:10:38;;;;;;;6.13;5.53;;;;;;;25.08;72.47;99957.41;4998454;28;20677;-77
2023/06/10 08:13:04;;;;;;;5.33;4.90;;;;;;;25.50;71.59;99934.88;4991085;28;20180;-75
2023/06/10 08:15:29;;;;;;;5.60;5.10;;;;;;;25.83;70.23;99946.47;4976083;28;20209;-75
2023/06/10 08:17:56;;;;;;;5.70;5.20;;;;;;;25.34;70.39;99945.78;4977333;28;20216;-76
2023/06/10 08:20:22;;;;;;;5.60;5.20;;;;;;;25.26;72.02;99949.00;4977934;28;20360;-75
2023/06/10 08:22:48;;;;;;;5.90;5.40;;;;;;;25.49;71.02;99931.38;4978419;28;20184;-75
2023/06/10 08:25:13;;;;;;;5.83;5.00;;;;;;;25.41;71.09;99933.75;4998498;28;20270;-76
2023/06/10 08:27:38;;;;;;;5.20;4.80;;;;;;;25.64;70.65;99925.88;4979158;28;20209;-76
2023/06/10 08:30:05;;;;;;;5.27;4.87;;;;;;;25.64;70.84;99932.00;4997552;28;20617;-76
2023/06/10 08:32:30;;;;;;;5.53;5.10;;;;;;;25.42;70.24;99924.88;4995909;28;20275;-77
2023/06/10 08:34:55;;;;;;;7.50;6.20;;;;;;;25.69;70.14;99929.84;4995140;28;20196;-76
2023/06/10 08:37:21;;;;;;;5.23;4.90;;;;;;;25.74;70.37;99925.97;4998132;28;20207;-76
2023/06/10 08:39:47;;;;;;;5.40;4.90;;;;;;;25.58;69.67;99924.53;4996151;28;20665;-75
2023/06/10 08:42:15;;;;;;;5.60;5.00;;;;;;;25.72;70.31;99931.41;4997600;28;20223;-76
2023/06/10 08:44:41;;;;;;;5.63;5.13;;;;;;;25.71;69.79;99927.06;4993640;28;20951;-75
2023/06/10 08:47:14;;;;;;;6.20;5.53;;;;;;;26.06;68.89;99917.28;4999696;28;20230;-74
2023/06/10 08:49:44;;;;;;;6.13;5.40;;;;;;;26.13;68.64;99919.34;4996259;28;20311;-75
2023/06/10 08:52:14;;;;;;;5.33;4.87;;;;;;;26.07;68.98;99922.47;4998737;28;20200;-76
2023/06/10 08:54:43;;;;;;;5.40;4.83;;;;;;;25.61;68.70;99915.50;5001700;28;20204;-75
2023/06/10 08:57:09;;;;;;;9.40;5.60;;;;;;;25.68;68.07;99922.00;5004165;28;20674;-76
2023/06/10 08:59:34;;;;;;;5.97;5.37;;;;;;;25.81;67.32;99914.75;5000592;28;20212;-76
2023/06/10 09:02:02;;;;;;;5.20;4.70;;;;;;;25.80;67.47;99918.38;4999910;28;20210;-75
2023/06/10 09:04:27;;;;;;;4.73;4.33;;;;;;;25.93;67.37;99915.59;5001446;28;20184;-75
2023/06/10 09:06:53;;;;;;;5.60;5.10;;;;;;;26.03;67.32;99913.06;5000330;28;20200;-75
2023/06/10 09:09:22;;;;;;;5.77;5.27;;;;;;;25.62;67.95;99914.56;4983528;28;20286;-75
2023/06/10 09:11:47;;;;;;;5.33;4.93;;;;;;;25.76;68.19;99905.50;4984285;28;20226;-75
2023/06/10 09:14:13;;;;;;;6.00;5.50;;;;;;;25.81;68.60;99917.41;4983166;28;20192;-75
2023/06/10 09:16:39;;;;;;;5.70;5.20;;;;;;;25.62;67.41;99903.94;5001044;28;20207;-75
2023/06/10 09:19:07;;;;;;;6.77;5.60;;;;;;;25.73;68.08;99903.94;4981812;28;20238;-75
2023/06/10 09:21:34;;;;;;;5.87;5.47;;;;;;;25.71;67.47;99906.69;4999466;28;20529;-74
2023/06/10 09:24:00;;;;;;;5.63;5.20;;;;;;;25.85;67.03;99908.25;4996521;28;20192;-74
2023/06/10 09:26:32;;;;;;;7.17;5.83;;;;;;;25.87;67.13;99910.78;4980845;28;21034;-75
2023/06/10 09:29:13;;;;;;;5.60;5.20;;;;;;;26.00;67.61;99908.00;4995223;28;20782;-74
2023/06/10 09:31:40;;;;;;;5.37;4.93;;;;;;;26.12;66.81;99906.22;4992922;28;20196;-76
2023/06/10 09:34:06;;;;;;;7.90;5.50;;;;;;;25.96;66.80;99898.59;4976464;28;20229;-75
2023/06/10 09:36:33;;;;;;;5.67;5.13;;;;;;;26.25;66.80;99911.34;4977488;28;20196;-75
2023/06/10 09:38:59;;;;;;;5.87;5.33;;;;;;;26.14;66.71;99897.16;4996307;28;20668;-75
2023/06/10 09:41:35;;;;;;;6.00;5.40;;;;;;;26.28;66.32;99892.53;4996756;28;20685;-75
2023/06/10 09:44:01;;;;;;;5.80;5.30;;;;;;;26.16;67.08;99897.06;5000662;28;20857;-76
2023/06/10 09:46:32;;;;;;;5.70;5.20;;;;;;;26.10;66.13;99895.69;4997885;28;20184;-75
2023/06/10 09:48:57;;;;;;;6.17;5.37;;;;;;;26.17;66.81;99898.72;5003467;28;20291;-75
2023/06/10 09:51:23;;;;;;;6.07;5.33;;;;;;;26.20;66.34;99889.69;4982475;28;20189;-74
2023/06/10 09:53:51;;;;;;;5.83;5.33;;;;;;;25.95;65.82;99910.16;4983029;28;20687;-75
2023/06/10 09:56:16;;;;;;;5.60;5.10;;;;;;;26.14;66.05;99896.34;4999453;28;20223;-74
2023/06/10 09:58:43;;;;;;;6.00;4.87;;;;;;;25.91;65.39;99898.16;5004192;28;20220;-75
2023/06/10 10:01:10;;;;;;;5.03;4.63;;;;;;;26.03;65.97;99892.69;4998571;28;20199;-74
2023/06/10 10:03:46;;;;;;;6.27;4.77;;;;;;;26.06;65.55;99909.31;4998781;28;20220;-75
2023/06/10 10:06:14;;;;;;;4.60;4.30;;;;;;;26.24;64.82;99897.25;5001443;28;20491;-76
2023/06/10 10:08:39;;;;;;;6.43;4.83;;;;;;;26.08;65.53;99884.38;4997084;28;20208;-75
2023/06/10 10:11:05;;;;;;;6.17;5.20;;;;;;;25.98;65.29;99907.28;5002923;28;20254;-76
2023/06/10 10:13:34;;;;;;;5.67;4.70;;;;;;;26.21;65.60;99881.59;5002885;28;20201;-76
2023/06/10 10:16:04;;;;;;;5.50;5.00;;;;;;;26.33;65.65;99896.50;4994871;28;20196;-75
2023/06/10 10:18:31;;;;;;;7.03;4.63;;;;;;;26.60;65.34;99902.31;5002421;28;20224;-75
2023/06/10 10:21:01;;;;;;;5.07;4.67;;;;;;;26.47;65.14;99903.34;4979381;28;20204;-75
2023/06/10 10:23:50;;;;;;;6.20;5.20;;;;;;;26.37;64.31;99896.25;4998863;28;20196;-77
2023/06/10 10:26:17;;;;;;;5.03;4.63;;;;;;;26.52;65.38;99883.56;4995948;28;20196;-75
2023/06/10 10:28:51;;;;;;;5.27;4.77;;;;;;;26.52;64.43;99895.00;5001469;28;20595;-75
2023/06/10 10:31:19;;;;;;;6.43;4.83;;;;;;;26.63;64.44;99916.16;4998062;28;20275;-75
2023/06/10 10:34:02;;;;;;;8.17;5.03;;;;;;;26.51;65.02;99888.00;4984088;28;20218;-76
2023/06/10 10:36:28;;;;;;;5.40;5.00;;;;;;;26.84;64.10;99885.38;5000614;28;20571;-75
2023/06/10 10:38:54;;;;;;;5.20;4.80;;;;;;;26.70;63.73;99891.78;5003305;28;20220;-76
2023/06/10 10:41:20;;;;;;;5.80;5.00;;;;;;;26.74;64.44;99888.75;4984665;28;20196;-76
2023/06/10 10:43:47;;;;;;;5.23;4.77;;;;;;;26.79;nan;99909.63;5001780;28;20188;-75
2023/06/10 10:46:17;;;;;;;5.10;4.70;;;;;;;26.62;64.53;99892.44;4983853;28;20714;-76
2023/06/10 10:48:43;;;;;;;6.50;4.57;;;;;;;26.56;64.06;99901.75;4987680;28;20585;-75
2023/06/10 10:51:09;;;;;;;6.07;4.40;;;;;;;26.86;63.39;99902.84;5000536;28;20193;-76
2023/06/10 10:53:36;;;;;;;5.17;4.57;;;;;;;26.71;63.60;99891.66;5001985;28;20259;-76
2023/06/10 10:56:06;;;;;;;5.10;4.70;;;;;;;26.87;63.25;99893.03;4994416;28;20188;-76
2023/06/10 10:58:32;;;;;;;5.10;4.53;;;;;;;26.92;63.27;99898.81;4989344;28;21021;-74
2023/06/10 11:00:57;;;;;;;5.27;4.77;;;;;;;27.11;63.34;99876.84;4990155;28;20236;-76
2023/06/10 11:03:28;;;;;;;5.20;4.67;;;;;;;26.96;63.47;99880.81;4999353;28;20204;-76
2023/06/10 11:05:57;;;;;;;5.10;4.60;;;;;;;27.00;62.75;99872.44;4995127;28;20199;-78
2023/06/10 11:08:32;;;;;;;6.03;5.17;;;;;;;26.96;63.24;99868.41;4981959;28;20944;-76
2023/06/10 11:10:57;;;;;;;5.20;4.80;;;;;;;27.05;63.62;99886.19;4996994;28;20190;-76
2023/06/10 11:13:22;;;;;;;5.80;5.33;;;;;;;26.92;64.18;99873.09;4995810;28;20196;-76
2023/06/10 11:15:49;;;;;;;5.03;4.73;;;;;;;27.13;63.80;99872.25;4999212;28;20207;-75
2023/06/10 11:18:29;;;;;;;5.13;4.83;;;;;;;27.28;62.82;99879.88;4997167;28;20212;-76
2023/06/10 11:20:55;;;;;;;5.40;4.90;;;;;;;27.58;63.12;99887.06;4999219;28;20203;-75
2023/06/10 11:23:30;;;;;;;8.20;4.83;;;;;;;27.73;62.77;99868.06;4978605;28;20224;-76
2023/06/10 11:26:14;;;;;;;4.93;4.53;;;;;;;27.94;61.85;99876.78;4981078;28;20196;-77
2023/06/10 11:29:01;;;;;;;4.50;4.20;;;;;;;28.23;61.68;99859.25;4993535;28;20208;-76
2023/06/10 11:31:37;;;;;;;4.70;4.30;;;;;;;28.43;61.55;99866.25;4998975;28;20242;-75